createdAt,value
2022-10-02T00:00:05.144Z,69.01
2022-10-02T00:02:52.686Z,68.86
2022-10-02T00:05:39.087Z,68.88
2022-10-02T00:08:23.919Z,68.84
2022-10-02T00:11:00.705Z,68.81
2022-10-02T00:13:37.390Z,68.71
2022-10-02T00:16:11.637Z,68.66
2022-10-02T00:18:39.758Z,68.53
2022-10-02T00:21:32.449Z,68.47
2022-10-02T00:24:02.156Z,68.41
2022-10-02T00:26:37.310Z,68.40
2022-10-02T00:29:33.385Z,68.57
2022-10-02T00:32:34.104Z,68.50
2022-10-02T00:35:19.368Z,68.55
2022-10-02T00:38:15.421Z,68.46
2022-10-02T00:40:56.623Z,68.26
2022-10-02T00:43:52.000Z,68.20
2022-10-02T00:46:56.780Z,68.23
2022-10-02T00:50:18.117Z,68.42
2022-10-02T00:53:11.092Z,68.29
2022-10-02T00:55:58.410Z,68.26
2022-10-02T00:59:02.904Z,68.24
2022-10-02T01:01:46.043Z,68.15
2022-10-02T01:04:28.560Z,68.36
2022-10-02T01:06:56.097Z,68.17
2022-10-02T01:09:24.511Z,68.04
2022-10-02T01:11:52.445Z,67.89
2022-10-02T01:14:19.636Z,67.97
2022-10-02T01:16:46.936Z,67.98
2022-10-02T01:19:32.896Z,67.99
2022-10-02T01:22:13.633Z,68.01
2022-10-02T01:24:53.760Z,68.01
2022-10-02T01:27:21.183Z,67.90
2022-10-02T01:29:55.540Z,67.95
2022-10-02T01:32:26.092Z,68.05
2022-10-02T01:34:54.267Z,67.79
2022-10-02T01:37:23.036Z,67.83
2022-10-02T01:39:50.047Z,67.95
2022-10-02T01:42:17.453Z,67.85
2022-10-02T01:44:44.932Z,67.75
2022-10-02T01:47:26.175Z,67.69
2022-10-02T01:50:11.452Z,67.85
2022-10-02T01:53:35.802Z,67.79
2022-10-02T01:56:44.537Z,67.72
2022-10-02T01:59:45.975Z,67.83
2022-10-02T02:02:37.202Z,67.80
2022-10-02T02:05:24.171Z,67.81
2022-10-02T02:08:37.745Z,67.89
2022-10-02T02:11:16.567Z,67.86
2022-10-02T02:14:00.565Z,67.98
2022-10-02T02:16:46.151Z,68.02
2022-10-02T02:19:34.863Z,68.01
2022-10-02T02:22:08.783Z,67.88
2022-10-02T02:24:52.765Z,67.91
2022-10-02T02:27:26.023Z,67.93
2022-10-02T02:30:00.469Z,68.07
2022-10-02T02:32:31.945Z,67.97
2022-10-02T02:35:05.759Z,67.97
2022-10-02T02:37:36.249Z,68.14
2022-10-02T02:40:25.943Z,68.12
2022-10-02T02:43:06.105Z,68.20
2022-10-02T02:45:39.948Z,68.03
2022-10-02T02:48:22.277Z,68.25
2022-10-02T02:51:01.529Z,68.18
2022-10-02T02:54:05.415Z,68.27
2022-10-02T02:56:33.606Z,68.35
2022-10-02T02:59:12.527Z,68.34
2022-10-02T03:01:41.118Z,68.50
2022-10-02T03:04:14.692Z,68.75
2022-10-02T03:06:45.236Z,68.90
2022-10-02T03:09:17.066Z,68.99
2022-10-02T03:12:17.991Z,68.73
2022-10-02T03:15:19.331Z,69.03
2022-10-02T03:18:18.313Z,69.62
2022-10-02T03:21:24.661Z,69.75
2022-10-02T03:24:15.284Z,69.63
2022-10-02T03:26:53.531Z,69.78
2022-10-02T03:30:02.310Z,69.70
2022-10-02T03:32:31.087Z,69.56
2022-10-02T03:34:58.361Z,69.63
2022-10-02T03:37:26.151Z,69.61
2022-10-02T03:39:53.833Z,69.24
2022-10-02T03:42:26.267Z,69.31
2022-10-02T03:44:53.131Z,69.36
2022-10-02T03:47:20.001Z,69.22
2022-10-02T03:49:46.864Z,69.52
2022-10-02T03:52:21.075Z,69.23
2022-10-02T03:54:53.846Z,69.02
2022-10-02T03:57:24.576Z,69.12
2022-10-02T04:00:09.261Z,68.97
2022-10-02T04:02:40.507Z,69.10
2022-10-02T04:05:35.661Z,68.92
2022-10-02T04:08:22.327Z,69.16
2022-10-02T04:11:23.951Z,69.12
2022-10-02T04:14:36.093Z,69.16
2022-10-02T04:17:11.507Z,69.08
2022-10-02T04:20:00.096Z,68.89
2022-10-02T04:22:47.591Z,68.96
2022-10-02T04:25:25.282Z,68.89
2022-10-02T04:27:59.031Z,68.73
2022-10-02T04:30:26.303Z,68.85
2022-10-02T04:32:54.518Z,68.66
2022-10-02T04:35:58.978Z,68.61
2022-10-02T04:38:50.075Z,68.56
2022-10-02T04:41:43.212Z,68.70
2022-10-02T04:44:40.605Z,68.60
2022-10-02T04:47:49.464Z,68.46
2022-10-02T04:50:49.067Z,68.54
2022-10-02T04:54:03.505Z,68.47
2022-10-02T04:57:14.407Z,68.36
2022-10-02T05:00:01.569Z,68.43
2022-10-02T05:02:45.405Z,68.24
2022-10-02T05:05:35.304Z,68.25
2022-10-02T05:08:42.430Z,68.26
2022-10-02T05:11:52.021Z,68.13
2022-10-02T05:14:56.261Z,68.03
2022-10-02T05:17:44.771Z,67.98
2022-10-02T05:21:02.983Z,67.95
2022-10-02T05:24:18.643Z,68.05
2022-10-02T05:27:16.755Z,67.98
2022-10-02T05:30:18.633Z,68.38
2022-10-02T05:33:19.154Z,68.04
2022-10-02T05:36:35.192Z,67.80
2022-10-02T05:39:37.587Z,67.99
2022-10-02T05:42:27.649Z,68.16
2022-10-02T05:45:25.520Z,67.96
2022-10-02T05:48:03.579Z,68.16
2022-10-02T05:50:35.669Z,68.24
2022-10-02T05:53:45.535Z,68.20
2022-10-02T05:56:30.428Z,68.28
2022-10-02T05:59:14.059Z,68.25
2022-10-02T06:01:46.770Z,68.19
2022-10-02T06:04:19.236Z,68.27
2022-10-02T06:06:51.913Z,68.04
2022-10-02T06:09:43.635Z,67.88
2022-10-02T06:12:26.783Z,68.10
2022-10-02T06:15:41.724Z,68.03
2022-10-02T06:18:16.913Z,67.88
2022-10-02T06:21:03.251Z,67.94
2022-10-02T06:23:44.321Z,67.90
2022-10-02T06:26:26.780Z,68.04
2022-10-02T06:29:02.484Z,68.09
2022-10-02T06:32:05.492Z,68.07
2022-10-02T06:34:32.416Z,68.19
2022-10-02T06:37:51.025Z,68.13
2022-10-02T06:40:50.711Z,68.24
2022-10-02T06:44:10.682Z,68.30
2022-10-02T06:47:12.438Z,68.28
2022-10-02T06:50:20.617Z,68.25
2022-10-02T06:53:18.707Z,68.14
2022-10-02T06:56:26.113Z,68.11
2022-10-02T06:59:13.455Z,67.78
2022-10-02T07:02:17.480Z,67.83
2022-10-02T07:05:33.800Z,67.62
2022-10-02T07:08:37.876Z,67.41
2022-10-02T07:11:28.458Z,66.89
2022-10-02T07:14:17.355Z,66.89
2022-10-02T07:17:21.548Z,67.02
2022-10-02T07:20:10.284Z,66.84
2022-10-02T07:23:07.501Z,66.43
2022-10-02T07:25:58.479Z,66.32
2022-10-02T07:29:03.248Z,66.01
2022-10-02T07:31:48.007Z,65.90
2022-10-02T07:34:39.667Z,65.66
2022-10-02T07:37:34.021Z,65.06
2022-10-02T07:40:29.022Z,64.95
2022-10-02T07:43:23.964Z,64.95
2022-10-02T07:46:26.375Z,64.87
2022-10-02T07:49:29.027Z,65.06
2022-10-02T07:52:05.968Z,64.33
2022-10-02T07:54:41.210Z,64.27
2022-10-02T07:57:29.121Z,64.68
2022-10-02T08:00:20.610Z,64.02
2022-10-02T08:03:01.204Z,63.83
2022-10-02T08:05:38.455Z,63.09
2022-10-02T08:08:26.020Z,63.01
2022-10-02T08:11:07.730Z,63.83
2022-10-02T08:13:42.957Z,62.91
2022-10-02T08:16:12.406Z,63.26
2022-10-02T08:18:46.091Z,61.90
2022-10-02T08:21:17.413Z,62.00
2022-10-02T08:24:07.059Z,62.25
2022-10-02T08:26:53.759Z,62.18
2022-10-02T08:29:40.183Z,61.52
2022-10-02T08:32:14.109Z,61.67
2022-10-02T08:34:43.524Z,61.61
2022-10-02T08:38:12.357Z,61.83
2022-10-02T08:40:56.287Z,61.71
2022-10-02T08:44:10.224Z,61.12
2022-10-02T08:46:58.519Z,61.40
2022-10-02T08:50:11.650Z,61.11
2022-10-02T08:53:17.429Z,60.29
2022-10-02T08:56:26.313Z,60.32
2022-10-02T08:59:28.590Z,59.73
2022-10-02T09:02:27.584Z,58.48
2022-10-02T09:05:28.865Z,58.23
2022-10-02T09:08:29.470Z,57.68
2022-10-02T09:11:36.446Z,57.30
2022-10-02T09:14:43.718Z,57.56
2022-10-02T09:17:35.609Z,57.66
2022-10-02T09:20:39.407Z,57.38
2022-10-02T09:23:40.785Z,56.40
2022-10-02T09:26:26.993Z,56.00
2022-10-02T09:29:28.559Z,55.94
2022-10-02T09:32:43.145Z,56.59
2022-10-02T09:35:55.099Z,56.53
2022-10-02T09:39:02.849Z,55.65
2022-10-02T09:42:15.258Z,54.88
2022-10-02T09:45:25.935Z,54.76
2022-10-02T09:48:24.774Z,54.95
2022-10-02T09:51:17.225Z,55.16
2022-10-02T09:54:36.704Z,55.57
2022-10-02T09:57:45.124Z,55.06
2022-10-02T10:00:39.219Z,54.87
2022-10-02T10:03:51.069Z,55.30
2022-10-02T10:06:51.597Z,55.66
2022-10-02T10:09:51.601Z,55.61
2022-10-02T10:13:21.359Z,55.78
2022-10-02T10:15:57.570Z,56.13
2022-10-02T10:18:43.110Z,56.00
2022-10-02T10:22:04.350Z,55.59
2022-10-02T10:25:18.152Z,54.59
2022-10-02T10:28:20.056Z,55.23
2022-10-02T10:31:34.750Z,55.12
2022-10-02T10:34:33.408Z,55.44
2022-10-02T10:37:44.706Z,55.27
2022-10-02T10:40:38.680Z,54.84
2022-10-02T10:43:42.893Z,52.89
2022-10-02T10:46:32.943Z,52.32
2022-10-02T10:49:31.763Z,52.32
2022-10-02T10:52:45.685Z,52.64
2022-10-02T10:55:32.933Z,51.91
2022-10-02T10:58:21.296Z,51.54
2022-10-02T11:01:20.929Z,51.64
2022-10-02T11:04:14.028Z,51.71
2022-10-02T11:06:56.250Z,51.10
2022-10-02T11:09:50.696Z,51.19
2022-10-02T11:12:39.119Z,52.14
2022-10-02T11:15:38.102Z,52.63
2022-10-02T11:18:31.449Z,53.13
2022-10-02T11:21:41.268Z,53.50
2022-10-02T11:24:42.987Z,52.93
2022-10-02T11:27:42.267Z,51.55
2022-10-02T11:31:07.311Z,52.41
2022-10-02T11:33:57.266Z,52.10
2022-10-02T11:36:43.441Z,51.99
2022-10-02T11:39:32.117Z,52.34
2022-10-02T11:42:46.012Z,51.97
2022-10-02T11:45:38.360Z,51.47
2022-10-02T11:48:43.484Z,51.94
2022-10-02T11:51:23.694Z,51.45
2022-10-02T11:54:26.281Z,51.41
2022-10-02T11:57:18.239Z,51.36
2022-10-02T12:00:24.584Z,51.63
2022-10-02T12:03:12.671Z,51.41
2022-10-02T12:06:42.606Z,50.55
2022-10-02T12:09:39.555Z,49.95
2022-10-02T12:12:17.008Z,49.48
2022-10-02T12:15:23.939Z,49.61
2022-10-02T12:18:17.123Z,49.49
2022-10-02T12:21:21.932Z,48.80
2022-10-02T12:24:39.539Z,48.02
2022-10-02T12:27:26.910Z,47.90
2022-10-02T12:30:15.281Z,47.86
2022-10-02T12:33:04.069Z,48.59
2022-10-02T12:35:57.132Z,48.07
2022-10-02T12:39:02.832Z,48.27
2022-10-02T12:42:30.926Z,48.40
2022-10-02T12:45:17.547Z,49.03
2022-10-02T12:48:14.163Z,49.11
2022-10-02T12:51:11.767Z,49.08
2022-10-02T12:54:25.721Z,50.05
2022-10-02T12:57:39.335Z,49.96
2022-10-02T13:00:16.810Z,49.72
2022-10-02T13:03:10.440Z,49.65
2022-10-02T13:06:11.418Z,50.57
2022-10-02T13:09:07.465Z,50.61
2022-10-02T13:12:16.147Z,51.57
2022-10-02T13:14:53.492Z,51.69
2022-10-02T13:17:38.028Z,51.00
2022-10-02T13:20:21.379Z,51.26
2022-10-02T13:23:21.879Z,51.96
2022-10-02T13:26:29.762Z,51.25
2022-10-02T13:29:25.446Z,51.05
2022-10-02T13:32:20.790Z,51.32
2022-10-02T13:35:39.745Z,50.16
2022-10-02T13:38:28.851Z,50.59
2022-10-02T13:41:25.953Z,50.85
2022-10-02T13:44:20.092Z,51.07
2022-10-02T13:47:16.490Z,50.24
2022-10-02T13:50:17.833Z,50.48
2022-10-02T13:53:31.952Z,50.31
2022-10-02T13:56:29.930Z,50.51
2022-10-02T13:59:21.172Z,50.31
2022-10-02T14:02:09.057Z,50.47
2022-10-02T14:05:05.249Z,49.56
2022-10-02T14:07:53.606Z,49.70
2022-10-02T14:10:53.035Z,50.03
2022-10-02T14:13:59.082Z,50.20
2022-10-02T14:16:44.189Z,49.51
2022-10-02T14:19:52.868Z,49.17
2022-10-02T14:22:57.505Z,48.19
2022-10-02T14:25:57.658Z,47.61
2022-10-02T14:28:58.292Z,47.14
2022-10-02T14:31:58.467Z,47.85
2022-10-02T14:34:50.848Z,48.30
2022-10-02T14:37:30.865Z,48.84
2022-10-02T14:40:01.767Z,49.08
2022-10-02T14:42:53.939Z,49.36
2022-10-02T14:46:03.166Z,48.80
2022-10-02T14:49:10.588Z,47.76
2022-10-02T14:52:20.557Z,48.11
2022-10-02T14:55:26.617Z,47.84
2022-10-02T14:58:30.281Z,47.83
2022-10-02T15:01:21.498Z,48.20
2022-10-02T15:04:06.957Z,48.68
2022-10-02T15:06:59.682Z,48.48
2022-10-02T15:10:04.221Z,48.83
2022-10-02T15:12:49.063Z,48.73
2022-10-02T15:15:25.599Z,49.13
2022-10-02T15:18:32.275Z,49.36
2022-10-02T15:21:08.035Z,49.45
2022-10-02T15:23:51.143Z,49.41
2022-10-02T15:26:56.604Z,49.49
2022-10-02T15:29:58.521Z,49.47
2022-10-02T15:32:47.771Z,49.26
2022-10-02T15:35:29.383Z,49.53
2022-10-02T15:38:46.740Z,49.06
2022-10-02T15:41:22.921Z,49.39
2022-10-02T15:44:18.444Z,49.27
2022-10-02T15:46:58.568Z,49.80
2022-10-02T15:49:56.368Z,49.98
2022-10-02T15:52:48.335Z,50.33
2022-10-02T15:55:40.791Z,50.05
2022-10-02T15:58:54.846Z,50.17
2022-10-02T16:01:28.484Z,50.96
2022-10-02T16:04:07.873Z,51.10
2022-10-02T16:07:32.970Z,50.99
2022-10-02T16:10:25.675Z,51.41
2022-10-02T16:13:43.591Z,51.86
2022-10-02T16:16:40.115Z,51.91
2022-10-02T16:19:39.259Z,52.01
2022-10-02T16:22:18.363Z,52.53
2022-10-02T16:25:56.572Z,52.50
2022-10-02T16:29:00.919Z,52.73
2022-10-02T16:32:25.503Z,53.01
2022-10-02T16:35:18.390Z,53.33
2022-10-02T16:37:57.379Z,53.38
2022-10-02T16:40:44.343Z,53.67
2022-10-02T16:43:54.251Z,53.60
2022-10-02T16:46:44.196Z,53.80
2022-10-02T16:49:44.755Z,54.15
2022-10-02T16:53:24.473Z,54.22
2022-10-02T16:56:07.167Z,54.32
2022-10-02T16:59:05.657Z,54.53
2022-10-02T17:02:13.141Z,54.59
2022-10-02T17:05:16.515Z,55.08
2022-10-02T17:08:10.326Z,55.16
2022-10-02T17:10:55.554Z,55.79
2022-10-02T17:13:37.915Z,55.84
2022-10-02T17:16:16.356Z,56.03
2022-10-02T17:18:58.960Z,55.72
2022-10-02T17:21:42.670Z,56.16
2022-10-02T17:24:39.311Z,56.50
2022-10-02T17:27:58.751Z,56.09
2022-10-02T17:30:28.899Z,56.32
2022-10-02T17:33:14.995Z,56.31
2022-10-02T17:36:01.653Z,57.00
2022-10-02T17:38:56.101Z,56.63
2022-10-02T17:41:55.937Z,57.12
2022-10-02T17:45:00.595Z,56.98
2022-10-02T17:48:02.960Z,57.13
2022-10-02T17:51:14.957Z,57.20
2022-10-02T17:54:58.510Z,57.64
2022-10-02T17:57:47.981Z,57.72
2022-10-02T18:00:24.692Z,57.38
2022-10-02T18:03:23.059Z,57.63
2022-10-02T18:06:19.609Z,57.96
2022-10-02T18:09:00.623Z,57.66
2022-10-02T18:12:03.744Z,58.10
2022-10-02T18:15:08.185Z,58.17
2022-10-02T18:17:43.284Z,58.05
2022-10-02T18:20:35.311Z,58.39
2022-10-02T18:23:33.564Z,58.40
2022-10-02T18:26:48.329Z,58.29
2022-10-02T18:29:45.399Z,58.53
2022-10-02T18:33:03.042Z,58.51
2022-10-02T18:36:27.831Z,58.97
2022-10-02T18:39:29.132Z,58.96
2022-10-02T18:42:40.971Z,59.02
2022-10-02T18:45:40.123Z,58.81
2022-10-02T18:48:30.914Z,59.22
2022-10-02T18:51:24.617Z,59.04
2022-10-02T18:54:18.723Z,59.05
2022-10-02T18:57:08.202Z,59.09
2022-10-02T18:59:39.478Z,59.12
2022-10-02T19:02:22.334Z,59.66
2022-10-02T19:05:09.624Z,59.66
2022-10-02T19:07:46.695Z,59.82
2022-10-02T19:10:43.745Z,60.34
2022-10-02T19:13:18.144Z,60.14
2022-10-02T19:15:48.498Z,60.45
2022-10-02T19:18:25.392Z,60.48
2022-10-02T19:21:09.600Z,60.61
2022-10-02T19:24:03.829Z,60.46
2022-10-02T19:26:35.026Z,60.68
2022-10-02T19:29:46.307Z,60.73
2022-10-02T19:32:21.308Z,60.83
2022-10-02T19:34:59.861Z,60.95
2022-10-02T19:37:27.018Z,60.80
2022-10-02T19:39:59.809Z,60.66
2022-10-02T19:42:33.933Z,60.83
2022-10-02T19:45:06.193Z,60.93
2022-10-02T19:47:42.692Z,60.94
2022-10-02T19:50:27.884Z,61.17
2022-10-02T19:52:59.779Z,61.58
2022-10-02T19:55:33.053Z,61.88
2022-10-02T19:58:25.272Z,61.60
2022-10-02T20:00:55.772Z,61.68
2022-10-02T20:03:25.001Z,61.62
2022-10-02T20:05:58.088Z,61.56
2022-10-02T20:08:41.026Z,61.80
2022-10-02T20:11:19.674Z,62.18
2022-10-02T20:14:03.681Z,62.03
2022-10-02T20:16:49.417Z,61.81
2022-10-02T20:19:25.338Z,61.93
2022-10-02T20:21:56.130Z,61.88
2022-10-02T20:24:50.596Z,62.07
2022-10-02T20:27:42.547Z,62.04
2022-10-02T20:30:19.460Z,62.15
2022-10-02T20:33:08.750Z,62.37
2022-10-02T20:35:45.099Z,62.49
2022-10-02T20:38:24.001Z,62.54
2022-10-02T20:40:54.504Z,62.44
2022-10-02T20:43:45.599Z,62.51
2022-10-02T20:46:35.557Z,62.78
2022-10-02T20:49:35.329Z,62.58
2022-10-02T20:52:40.358Z,62.67
2022-10-02T20:55:27.277Z,62.63
2022-10-02T20:58:17.089Z,62.91
2022-10-02T21:01:18.577Z,62.91
2022-10-02T21:04:19.255Z,63.21
2022-10-02T21:07:20.855Z,63.08
2022-10-02T21:10:29.002Z,62.84
2022-10-02T21:13:09.111Z,63.13
2022-10-02T21:16:50.261Z,63.16
2022-10-02T21:20:07.190Z,63.27
2022-10-02T21:23:08.437Z,63.47
2022-10-02T21:26:28.041Z,63.30
2022-10-02T21:29:37.428Z,63.74
2022-10-02T21:32:41.013Z,63.41
2022-10-02T21:35:49.616Z,63.86
2022-10-02T21:38:44.291Z,63.92
2022-10-02T21:41:52.660Z,64.20
2022-10-02T21:44:49.211Z,64.04
2022-10-02T21:47:43.694Z,64.09
2022-10-02T21:50:59.996Z,64.04
2022-10-02T21:54:22.022Z,64.05
2022-10-02T21:57:43.755Z,64.44
2022-10-02T22:00:24.775Z,64.30
2022-10-02T22:03:34.253Z,64.89
2022-10-02T22:06:39.753Z,64.75
2022-10-02T22:09:34.398Z,64.55
2022-10-02T22:12:45.465Z,64.72
2022-10-02T22:15:31.133Z,64.47
2022-10-02T22:18:13.061Z,64.54
2022-10-02T22:20:48.737Z,64.75
2022-10-02T22:24:06.795Z,64.70
2022-10-02T22:27:15.879Z,64.66
2022-10-02T22:29:52.421Z,64.73
2022-10-02T22:33:06.523Z,64.88
2022-10-02T22:35:48.275Z,64.78
2022-10-02T22:38:32.176Z,64.89
2022-10-02T22:41:23.873Z,64.83
2022-10-02T22:44:09.901Z,64.93
2022-10-02T22:47:00.828Z,65.04
2022-10-02T22:49:58.948Z,65.04
2022-10-02T22:52:33.806Z,65.09
2022-10-02T22:55:33.986Z,65.21
2022-10-02T22:58:14.601Z,64.85
2022-10-02T23:01:07.520Z,64.95
2022-10-02T23:03:54.439Z,64.86
2022-10-02T23:06:41.908Z,65.21
2022-10-02T23:09:22.929Z,65.32
2022-10-02T23:12:27.791Z,65.00
2022-10-02T23:15:05.789Z,65.11
2022-10-02T23:18:02.591Z,65.36
2022-10-02T23:20:43.003Z,65.68
2022-10-02T23:23:17.907Z,65.77
2022-10-02T23:26:10.026Z,65.55
2022-10-02T23:28:47.777Z,65.61
2022-10-02T23:31:30.267Z,65.51
2022-10-02T23:34:32.785Z,65.58
2022-10-02T23:38:02.093Z,65.78
2022-10-02T23:41:28.437Z,65.58
2022-10-02T23:44:50.984Z,65.64
2022-10-02T23:47:29.192Z,65.44
2022-10-02T23:49:57.875Z,65.58
2022-10-02T23:52:50.451Z,65.58
2022-10-02T23:55:39.640Z,65.53
2022-10-02T23:58:58.335Z,65.63
